createdAt,value
2023-01-27T00:02:22.281Z,55.00
2023-01-27T00:04:52.809Z,61.10
2023-01-27T00:07:21.888Z,55.70
2023-01-27T00:09:50.831Z,59.50
2023-01-27T00:12:38.721Z,50.53
2023-01-27T00:15:08.981Z,61.33
2023-01-27T00:17:38.343Z,55.07
2023-01-27T00:20:11.866Z,51.50
2023-01-27T00:23:03.456Z,56.80
2023-01-27T00:25:33.435Z,59.53
2023-01-27T00:28:06.083Z,62.27
2023-01-27T00:30:35.084Z,58.97
2023-01-27T00:33:21.247Z,64.17
2023-01-27T00:35:51.624Z,60.83
2023-01-27T00:38:20.611Z,69.30
2023-01-27T00:41:10.284Z,54.70
2023-01-27T00:43:39.285Z,55.57
2023-01-27T00:46:08.485Z,65.47
2023-01-27T00:48:37.687Z,60.13
2023-01-27T00:51:08.145Z,66.03
2023-01-27T00:53:37.367Z,62.23
2023-01-27T00:56:06.823Z,64.87
2023-01-27T00:58:36.163Z,68.30
2023-01-27T01:01:06.878Z,67.67
2023-01-27T01:03:37.370Z,66.57
2023-01-27T01:06:10.031Z,70.40
2023-01-27T01:08:46.395Z,65.40
2023-01-27T01:11:21.658Z,64.27
2023-01-27T01:13:51.130Z,60.30
2023-01-27T01:16:23.088Z,59.13
2023-01-27T01:18:52.288Z,62.67
2023-01-27T01:21:22.739Z,60.07
2023-01-27T01:23:52.052Z,72.70
2023-01-27T01:26:20.975Z,53.90
2023-01-27T01:28:49.986Z,60.90
2023-01-27T01:31:21.102Z,56.97
2023-01-27T01:33:50.642Z,53.70
2023-01-27T01:36:22.512Z,61.90
2023-01-27T01:38:56.128Z,56.17
2023-01-27T01:41:26.846Z,59.73
2023-01-27T01:43:55.829Z,54.93
2023-01-27T01:46:24.988Z,68.93
2023-01-27T01:48:56.375Z,60.90
2023-01-27T01:51:33.077Z,62.03
2023-01-27T01:54:05.277Z,66.13
2023-01-27T01:56:38.974Z,77.47
2023-01-27T01:59:11.443Z,59.47
2023-01-27T02:01:40.672Z,62.67
2023-01-27T02:04:16.675Z,69.23
2023-01-27T02:06:58.421Z,61.97
2023-01-27T02:09:29.091Z,59.80
2023-01-27T02:14:37.887Z,71.93
2023-01-27T02:17:08.067Z,66.33
2023-01-27T02:19:48.266Z,67.93
2023-01-27T02:22:27.842Z,56.20
2023-01-27T02:25:10.291Z,59.63
2023-01-27T02:27:41.546Z,64.93
2023-01-27T02:30:13.103Z,51.93
2023-01-27T02:32:45.158Z,58.80
2023-01-27T02:35:18.799Z,64.27
2023-01-27T02:37:49.594Z,56.73
2023-01-27T02:40:19.800Z,61.47
2023-01-27T02:42:51.983Z,57.50
2023-01-27T02:45:21.622Z,62.97
2023-01-27T02:47:51.426Z,66.80
2023-01-27T02:50:21.138Z,66.27
2023-01-27T02:52:50.719Z,67.40
2023-01-27T02:55:20.630Z,58.57
2023-01-27T02:57:51.579Z,62.90
2023-01-27T03:00:21.492Z,58.93
2023-01-27T03:02:51.169Z,66.30
2023-01-27T03:05:20.490Z,63.70
2023-01-27T03:07:50.739Z,64.07
2023-01-27T03:10:21.158Z,66.27
2023-01-27T03:12:52.313Z,75.70
2023-01-27T03:15:38.641Z,57.30
2023-01-27T03:18:12.605Z,66.13
2023-01-27T03:20:43.134Z,65.97
2023-01-27T03:23:13.376Z,58.13
2023-01-27T03:25:47.496Z,68.43
2023-01-27T03:28:19.575Z,69.10
2023-01-27T03:30:48.663Z,61.50
2023-01-27T03:33:19.924Z,60.87
2023-01-27T03:35:50.416Z,62.07
2023-01-27T03:38:36.986Z,70.10
2023-01-27T03:41:24.127Z,76.00
2023-01-27T03:44:12.936Z,68.53
2023-01-27T03:46:42.042Z,64.10
2023-01-27T03:49:11.534Z,56.10
2023-01-27T03:51:41.009Z,72.10
2023-01-27T03:54:10.726Z,60.53
2023-01-27T03:56:41.394Z,59.63
2023-01-27T03:59:12.437Z,63.63
2023-01-27T04:01:41.929Z,61.00
2023-01-27T04:04:29.503Z,63.20
2023-01-27T04:07:01.719Z,61.80
2023-01-27T04:09:34.272Z,76.40
2023-01-27T04:12:05.001Z,65.20
2023-01-27T04:14:39.072Z,57.53
2023-01-27T04:17:12.154Z,64.67
2023-01-27T04:19:41.797Z,55.97
2023-01-27T04:22:13.359Z,66.57
2023-01-27T04:24:42.452Z,68.90
2023-01-27T04:27:14.730Z,67.53
2023-01-27T04:29:45.709Z,66.00
2023-01-27T04:32:16.595Z,67.80
2023-01-27T04:34:46.037Z,66.20
2023-01-27T04:37:15.186Z,61.63
2023-01-27T04:39:46.779Z,62.07
2023-01-27T04:42:16.970Z,72.07
2023-01-27T04:44:48.411Z,75.90
2023-01-27T04:47:17.739Z,70.97
2023-01-27T04:49:47.703Z,67.37
2023-01-27T04:52:18.741Z,56.83
2023-01-27T04:54:47.918Z,71.50
2023-01-27T04:57:17.361Z,61.50
2023-01-27T04:59:48.450Z,66.90
2023-01-27T05:02:17.819Z,58.73
2023-01-27T05:04:47.030Z,73.97
2023-01-27T05:07:16.411Z,68.73
2023-01-27T05:09:46.195Z,76.27
2023-01-27T05:12:15.646Z,61.23
2023-01-27T05:14:45.118Z,66.77
2023-01-27T05:17:16.970Z,58.53
2023-01-27T05:19:46.493Z,66.57
2023-01-27T05:22:16.530Z,73.23
2023-01-27T05:24:45.977Z,70.53
2023-01-27T05:27:15.751Z,67.93
2023-01-27T05:29:44.900Z,67.97
2023-01-27T05:32:16.627Z,58.87
2023-01-27T05:34:46.353Z,71.23
2023-01-27T05:37:15.559Z,62.10
2023-01-27T05:39:46.019Z,60.87
2023-01-27T05:42:15.651Z,66.97
2023-01-27T05:44:44.911Z,72.20
2023-01-27T05:47:16.744Z,58.13
2023-01-27T05:49:46.203Z,61.13
2023-01-27T05:52:15.569Z,59.53
2023-01-27T05:54:44.792Z,72.57
2023-01-27T05:57:13.936Z,61.53
2023-01-27T05:59:43.492Z,65.20
2023-01-27T06:02:12.656Z,67.10
2023-01-27T06:04:46.330Z,66.07
2023-01-27T06:07:15.735Z,68.40
2023-01-27T06:09:44.872Z,68.97
2023-01-27T06:12:14.745Z,79.53
2023-01-27T06:14:44.033Z,68.90
2023-01-27T06:17:13.192Z,69.77
2023-01-27T06:19:44.711Z,77.47
2023-01-27T06:22:13.825Z,69.27
2023-01-27T06:24:43.085Z,66.73
2023-01-27T06:27:12.228Z,69.73
2023-01-27T06:29:41.520Z,85.40
2023-01-27T06:32:10.778Z,62.77
2023-01-27T06:34:40.477Z,83.60
2023-01-27T06:37:11.288Z,79.53
2023-01-27T06:39:41.376Z,70.37
2023-01-27T06:42:10.567Z,75.67
2023-01-27T06:44:39.771Z,80.10
2023-01-27T06:47:09.666Z,75.27
2023-01-27T06:49:39.199Z,73.30
2023-01-27T06:52:10.718Z,80.90
2023-01-27T06:54:39.854Z,67.93
2023-01-27T06:57:11.283Z,75.37
2023-01-27T06:59:41.193Z,76.60
2023-01-27T07:02:12.980Z,53.77
2023-01-27T07:04:42.693Z,53.97
2023-01-27T07:07:14.089Z,50.57
2023-01-27T07:09:52.397Z,58.23
2023-01-27T07:12:22.161Z,63.17
2023-01-27T07:14:51.429Z,52.57
2023-01-27T07:17:21.388Z,55.20
2023-01-27T07:19:50.882Z,53.40
2023-01-27T07:22:22.031Z,52.07
2023-01-27T07:24:51.210Z,59.37
2023-01-27T07:27:20.910Z,54.10
2023-01-27T07:29:50.021Z,64.13
2023-01-27T07:32:19.327Z,66.90
2023-01-27T07:34:48.894Z,57.03
2023-01-27T07:37:18.721Z,63.23
2023-01-27T07:39:50.512Z,62.40
2023-01-27T07:42:19.818Z,60.40
2023-01-27T07:44:50.946Z,55.00
2023-01-27T07:47:20.392Z,64.47
2023-01-27T07:49:49.556Z,58.50
2023-01-27T07:52:19.524Z,60.40
2023-01-27T07:54:51.759Z,60.70
2023-01-27T07:57:21.151Z,60.30
2023-01-27T07:59:55.854Z,50.33
2023-01-27T08:02:26.356Z,54.57
2023-01-27T08:04:55.728Z,56.03
2023-01-27T08:07:24.930Z,49.30
2023-01-27T08:09:57.581Z,52.33
2023-01-27T08:12:27.250Z,57.07
2023-01-27T08:14:56.841Z,57.83
2023-01-27T08:17:26.112Z,55.47
2023-01-27T08:19:55.201Z,54.77
2023-01-27T08:22:24.698Z,50.20
2023-01-27T08:24:55.642Z,53.17
2023-01-27T08:27:25.662Z,50.93
2023-01-27T08:29:56.351Z,54.50
2023-01-27T08:32:25.953Z,52.60
2023-01-27T08:34:55.907Z,52.50
2023-01-27T08:37:26.131Z,48.90
2023-01-27T08:39:57.228Z,50.07
2023-01-27T08:42:27.064Z,47.80
2023-01-27T08:44:56.680Z,55.17
2023-01-27T08:47:26.314Z,55.33
2023-01-27T08:49:56.690Z,51.20
2023-01-27T08:52:28.039Z,59.27
2023-01-27T08:54:59.592Z,51.00
2023-01-27T08:57:32.954Z,51.67
2023-01-27T09:00:02.990Z,46.33
2023-01-27T09:02:32.114Z,44.63
2023-01-27T09:05:01.805Z,49.67
2023-01-27T09:07:31.815Z,46.70
2023-01-27T09:10:14.126Z,48.00
2023-01-27T09:12:45.558Z,49.33
2023-01-27T09:15:16.096Z,48.83
2023-01-27T09:17:45.591Z,46.90
2023-01-27T09:20:15.671Z,49.83
2023-01-27T09:22:46.345Z,43.27
2023-01-27T09:25:19.106Z,48.60
2023-01-27T09:27:53.493Z,42.10
2023-01-27T09:30:31.440Z,45.00
2023-01-27T09:33:11.563Z,49.27
2023-01-27T09:35:52.931Z,47.03
2023-01-27T09:38:31.291Z,45.07
2023-01-27T09:41:29.737Z,44.57
2023-01-27T09:44:24.101Z,44.70
2023-01-27T09:47:23.790Z,45.80
2023-01-27T09:50:22.993Z,41.40
2023-01-27T09:53:09.747Z,43.53
2023-01-27T09:55:44.923Z,38.30
2023-01-27T09:58:24.782Z,41.47
2023-01-27T10:01:02.932Z,43.17
2023-01-27T10:03:56.462Z,47.80
2023-01-27T10:06:44.700Z,59.13
2023-01-27T10:09:53.338Z,77.87
2023-01-27T10:12:36.852Z,44.57
2023-01-27T10:15:21.441Z,46.23
2023-01-27T10:18:03.793Z,34.33
2023-01-27T10:20:39.987Z,48.57
2023-01-27T10:23:25.428Z,40.30
2023-01-27T10:26:11.423Z,34.03
2023-01-27T10:28:48.420Z,36.80
2023-01-27T10:31:27.231Z,36.60
2023-01-27T10:33:58.903Z,31.67
2023-01-27T10:36:33.686Z,31.87
2023-01-27T10:39:17.555Z,30.40
2023-01-27T10:41:57.658Z,30.37
2023-01-27T10:44:42.973Z,36.47
2023-01-27T10:47:23.080Z,31.13
2023-01-27T10:49:57.571Z,35.90
2023-01-27T10:52:31.691Z,31.30
2023-01-27T10:55:05.962Z,32.47
2023-01-27T10:57:40.904Z,32.27
2023-01-27T11:03:18.463Z,32.50
2023-01-27T11:05:52.724Z,30.97
2023-01-27T11:08:25.163Z,33.30
2023-01-27T11:11:15.441Z,32.77
2023-01-27T11:13:46.934Z,31.93
2023-01-27T11:16:18.981Z,32.10
2023-01-27T11:18:58.647Z,33.93
2023-01-27T11:21:30.974Z,26.93
2023-01-27T11:24:08.230Z,27.87
2023-01-27T11:26:46.811Z,32.83
2023-01-27T11:29:24.095Z,28.00
2023-01-27T11:32:00.608Z,28.20
2023-01-27T11:34:37.927Z,28.03
2023-01-27T11:37:20.809Z,28.27
2023-01-27T11:39:50.873Z,27.63
2023-01-27T11:42:21.771Z,28.60
2023-01-27T11:44:55.223Z,31.13
2023-01-27T11:47:26.975Z,32.97
2023-01-27T11:49:59.574Z,29.17
2023-01-27T11:52:30.971Z,29.33
2023-01-27T11:55:07.131Z,29.10
2023-01-27T11:57:41.343Z,30.87
2023-01-27T12:00:20.608Z,30.10
2023-01-27T12:02:55.661Z,29.80
2023-01-27T12:05:33.799Z,27.53
2023-01-27T12:08:04.703Z,35.90
2023-01-27T12:10:36.460Z,31.00
2023-01-27T12:13:11.832Z,35.50
2023-01-27T12:15:51.272Z,33.23
2023-01-27T12:18:21.706Z,36.27
2023-01-27T12:21:01.125Z,30.00
2023-01-27T12:23:33.575Z,36.97
2023-01-27T12:26:05.080Z,34.67
2023-01-27T12:28:37.153Z,32.90
2023-01-27T12:31:10.901Z,36.67
2023-01-27T12:33:44.182Z,36.47
2023-01-27T12:36:18.432Z,32.40
2023-01-27T12:38:52.386Z,29.07
2023-01-27T12:41:28.358Z,28.77
2023-01-27T12:44:00.693Z,27.07
2023-01-27T12:46:31.754Z,26.97
2023-01-27T12:49:04.736Z,29.33
2023-01-27T12:51:48.984Z,24.87
2023-01-27T12:54:23.573Z,30.93
2023-01-27T12:56:53.891Z,35.13
2023-01-27T12:59:26.584Z,40.03
2023-01-27T13:02:06.924Z,38.17
2023-01-27T13:04:37.495Z,30.10
2023-01-27T13:07:14.582Z,25.23
2023-01-27T13:09:52.575Z,27.50
2023-01-27T13:12:24.582Z,31.00
2023-01-27T13:14:56.586Z,28.03
2023-01-27T13:17:39.288Z,21.97
2023-01-27T13:20:17.577Z,22.47
2023-01-27T13:22:52.089Z,16.77
2023-01-27T13:25:24.882Z,18.17
2023-01-27T13:27:59.854Z,19.83
2023-01-27T13:30:35.954Z,22.23
2023-01-27T13:33:16.074Z,18.10
2023-01-27T13:35:52.921Z,18.33
2023-01-27T13:38:31.283Z,18.47
2023-01-27T13:41:02.008Z,12.40
2023-01-27T13:43:36.544Z,10.27
2023-01-27T13:46:17.063Z,8.17
2023-01-27T13:48:51.458Z,9.70
2023-01-27T13:51:23.380Z,7.97
2023-01-27T13:53:59.952Z,9.53
2023-01-27T13:56:42.585Z,9.20
2023-01-27T13:59:27.654Z,7.67
2023-01-27T14:02:09.685Z,7.83
2023-01-27T14:04:59.949Z,7.57
2023-01-27T14:07:37.268Z,7.83
2023-01-27T14:10:24.715Z,6.90
2023-01-27T14:13:27.503Z,9.07
2023-01-27T14:16:04.578Z,7.70
2023-01-27T14:18:38.963Z,8.20
2023-01-27T14:21:39.781Z,7.13
2023-01-27T14:24:24.610Z,8.23
2023-01-27T14:27:02.533Z,7.37
2023-01-27T14:29:41.145Z,8.57
2023-01-27T14:32:21.149Z,7.93
2023-01-27T14:35:08.293Z,8.87
2023-01-27T14:37:48.166Z,6.90
2023-01-27T14:40:23.106Z,8.77
2023-01-27T14:43:15.783Z,7.97
2023-01-27T14:45:50.769Z,14.00
2023-01-27T14:48:39.783Z,8.90
2023-01-27T14:51:14.836Z,9.20
2023-01-27T14:54:02.920Z,5.93
2023-01-27T14:56:42.274Z,6.93
2023-01-27T14:59:25.968Z,7.77
2023-01-27T15:02:05.599Z,6.43
2023-01-27T15:04:44.697Z,9.00
2023-01-27T15:07:21.538Z,8.03
2023-01-27T15:10:02.194Z,7.53
2023-01-27T15:12:50.003Z,9.57
2023-01-27T15:15:42.386Z,8.27
2023-01-27T15:18:44.723Z,6.30
2023-01-27T15:21:48.832Z,8.70
2023-01-27T15:24:36.695Z,8.30
2023-01-27T15:27:07.092Z,8.00
2023-01-27T15:29:36.289Z,8.07
2023-01-27T15:32:40.041Z,9.13
2023-01-27T15:35:36.678Z,10.67
2023-01-27T15:38:35.893Z,9.40
2023-01-27T15:41:10.862Z,8.87
2023-01-27T15:43:45.637Z,9.83
2023-01-27T15:46:29.549Z,7.87
2023-01-27T15:49:02.642Z,8.33
2023-01-27T15:51:36.535Z,9.27
2023-01-27T15:54:08.407Z,8.97
2023-01-27T15:57:00.386Z,9.23
2023-01-27T15:59:33.044Z,10.57
2023-01-27T16:02:07.285Z,10.17
2023-01-27T16:04:39.040Z,9.80
2023-01-27T16:07:19.930Z,10.17
2023-01-27T16:09:51.798Z,10.60
2023-01-27T16:12:44.186Z,9.27
2023-01-27T16:15:36.075Z,10.17
2023-01-27T16:18:27.633Z,10.43
2023-01-27T16:21:23.128Z,10.67
2023-01-27T16:23:58.200Z,12.83
2023-01-27T16:26:36.564Z,12.10
2023-01-27T16:29:26.079Z,13.40
2023-01-27T16:32:00.089Z,14.57
2023-01-27T16:34:37.318Z,14.70
2023-01-27T16:37:21.564Z,12.47
2023-01-27T16:39:57.326Z,11.00
2023-01-27T16:42:31.504Z,13.37
2023-01-27T16:45:04.919Z,17.17
2023-01-27T16:47:43.862Z,12.73
2023-01-27T16:50:36.121Z,15.43
2023-01-27T16:53:10.357Z,13.03
2023-01-27T16:55:40.095Z,12.13
2023-01-27T16:58:24.366Z,12.93
2023-01-27T17:00:56.859Z,15.37
2023-01-27T17:03:35.290Z,13.10
2023-01-27T17:06:08.545Z,15.93
2023-01-27T17:08:46.960Z,12.70
2023-01-27T17:11:24.495Z,12.30
2023-01-27T17:14:00.997Z,13.70
2023-01-27T17:16:33.726Z,16.60
2023-01-27T17:19:10.434Z,13.13
2023-01-27T17:21:42.645Z,14.03
2023-01-27T17:24:21.751Z,14.80
2023-01-27T17:26:58.642Z,15.00
2023-01-27T17:29:37.315Z,15.57
2023-01-27T17:32:21.724Z,13.00
2023-01-27T17:34:54.732Z,13.10
2023-01-27T17:37:26.687Z,13.97
2023-01-27T17:40:01.720Z,12.17
2023-01-27T17:42:34.531Z,12.57
2023-01-27T17:45:27.112Z,13.43
2023-01-27T17:47:59.947Z,17.07
2023-01-27T17:50:35.364Z,11.00
2023-01-27T17:53:06.566Z,13.30
2023-01-27T17:55:38.774Z,14.13
2023-01-27T17:58:13.644Z,12.73
2023-01-27T18:00:47.702Z,12.90
2023-01-27T18:03:22.808Z,11.53
2023-01-27T18:05:55.353Z,15.17
2023-01-27T18:08:25.603Z,12.63
2023-01-27T18:11:13.415Z,14.27
2023-01-27T18:13:44.757Z,16.37
2023-01-27T18:16:20.543Z,17.10
2023-01-27T18:18:53.395Z,16.70
2023-01-27T18:21:26.588Z,14.73
2023-01-27T18:23:59.482Z,16.67
2023-01-27T18:26:37.771Z,15.00
2023-01-27T18:29:11.277Z,13.93
2023-01-27T18:31:55.012Z,14.60
2023-01-27T18:34:33.332Z,15.40
2023-01-27T18:37:08.598Z,13.40
2023-01-27T18:39:41.100Z,12.40
2023-01-27T18:42:19.408Z,13.40
2023-01-27T18:44:56.350Z,14.07
2023-01-27T18:47:31.415Z,14.17
2023-01-27T18:50:23.466Z,14.73
2023-01-27T18:52:54.896Z,15.23
2023-01-27T18:55:28.707Z,11.10
2023-01-27T18:58:03.296Z,14.50
2023-01-27T19:00:40.191Z,16.00
2023-01-27T19:03:19.712Z,14.10
2023-01-27T19:05:50.727Z,12.93
2023-01-27T19:08:22.680Z,13.83
2023-01-27T19:10:54.071Z,15.23
2023-01-27T19:13:27.206Z,13.20
2023-01-27T19:16:00.674Z,15.13
2023-01-27T19:18:36.036Z,14.50
2023-01-27T19:21:08.907Z,16.70
2023-01-27T19:23:38.745Z,15.40
2023-01-27T19:26:18.643Z,14.80
2023-01-27T19:28:56.172Z,15.97
2023-01-27T19:31:26.610Z,17.33
2023-01-27T19:33:57.819Z,17.80
2023-01-27T19:36:32.355Z,14.90
2023-01-27T19:39:13.736Z,15.97
2023-01-27T19:41:44.364Z,15.60
2023-01-27T19:44:20.352Z,17.30
2023-01-27T19:46:51.527Z,15.57
2023-01-27T19:49:24.525Z,15.33
2023-01-27T19:52:00.882Z,15.37
2023-01-27T19:54:31.542Z,17.13
2023-01-27T19:57:02.016Z,16.20
2023-01-27T19:59:34.681Z,16.20
2023-01-27T20:02:06.007Z,16.87
2023-01-27T20:04:38.452Z,17.13
2023-01-27T20:07:10.228Z,18.97
2023-01-27T20:09:40.707Z,17.13
2023-01-27T20:12:17.680Z,16.53
2023-01-27T20:14:52.666Z,16.03
2023-01-27T20:17:24.238Z,15.57
2023-01-27T20:19:56.245Z,16.77
2023-01-27T20:22:27.756Z,19.60
2023-01-27T20:25:11.193Z,17.53
2023-01-27T20:27:43.162Z,13.87
2023-01-27T20:30:20.396Z,16.40
2023-01-27T20:32:59.577Z,17.10
2023-01-27T20:35:30.325Z,17.07
2023-01-27T20:38:03.765Z,21.37
2023-01-27T20:40:36.659Z,15.70
2023-01-27T20:43:08.875Z,17.83
2023-01-27T20:45:45.495Z,16.27
2023-01-27T20:48:18.034Z,15.63
2023-01-27T20:50:50.063Z,14.17
2023-01-27T20:53:20.597Z,18.53
2023-01-27T20:55:51.212Z,16.70
2023-01-27T20:58:22.203Z,16.93
2023-01-27T21:00:55.492Z,17.03
2023-01-27T21:03:25.317Z,21.17
2023-01-27T21:05:56.674Z,16.23
2023-01-27T21:08:29.523Z,17.97
2023-01-27T21:11:05.834Z,17.30
2023-01-27T21:13:38.527Z,16.10
2023-01-27T21:16:10.785Z,23.80
2023-01-27T21:18:44.458Z,19.27
2023-01-27T21:21:31.974Z,30.80
2023-01-27T21:24:02.079Z,18.50
2023-01-27T21:26:33.241Z,14.47
2023-01-27T21:29:04.219Z,14.70
2023-01-27T21:31:36.886Z,14.83
2023-01-27T21:34:06.765Z,14.00
2023-01-27T21:36:36.991Z,16.30
2023-01-27T21:39:08.367Z,16.17
2023-01-27T21:41:55.715Z,14.70
2023-01-27T21:44:43.595Z,16.27
2023-01-27T21:47:20.731Z,15.63
2023-01-27T21:50:02.798Z,13.63
2023-01-27T21:52:36.134Z,15.50
2023-01-27T21:55:09.355Z,13.43
2023-01-27T21:57:39.162Z,13.67
2023-01-27T22:00:11.513Z,13.57
2023-01-27T22:02:46.054Z,16.27
2023-01-27T22:05:18.437Z,17.63
2023-01-27T22:07:48.927Z,18.20
2023-01-27T22:10:21.137Z,17.77
2023-01-27T22:12:51.828Z,16.43
2023-01-27T22:15:22.364Z,14.23
2023-01-27T22:17:56.124Z,11.03
2023-01-27T22:20:25.896Z,14.93
2023-01-27T22:22:55.718Z,14.47
2023-01-27T22:25:25.054Z,12.17
2023-01-27T22:27:56.298Z,10.37
2023-01-27T22:30:26.065Z,12.37
2023-01-27T22:32:57.514Z,11.70
2023-01-27T22:35:26.796Z,13.00
2023-01-27T22:37:56.760Z,11.67
2023-01-27T22:40:26.355Z,12.30
2023-01-27T22:42:56.465Z,13.20
2023-01-27T22:45:26.156Z,11.10
2023-01-27T22:47:59.342Z,11.20
2023-01-27T22:50:29.682Z,11.03
2023-01-27T22:52:59.688Z,11.23
2023-01-27T22:55:29.447Z,11.83
2023-01-27T22:57:58.704Z,9.93
2023-01-27T23:00:28.008Z,10.47
2023-01-27T23:02:59.045Z,12.93
2023-01-27T23:05:31.941Z,9.40
2023-01-27T23:08:01.558Z,14.93
2023-01-27T23:10:47.026Z,26.07
2023-01-27T23:13:39.182Z,47.60
2023-01-27T23:19:12.021Z,12.73
2023-01-27T23:21:41.676Z,10.97
2023-01-27T23:24:11.898Z,12.20
2023-01-27T23:26:41.406Z,9.60
2023-01-27T23:29:23.097Z,9.87
2023-01-27T23:31:54.582Z,10.37
2023-01-27T23:34:25.391Z,9.13
2023-01-27T23:36:55.807Z,9.20
2023-01-27T23:39:25.445Z,30.33
2023-01-27T23:41:55.825Z,30.10
2023-01-27T23:44:25.129Z,9.20
2023-01-27T23:46:54.457Z,9.57
2023-01-27T23:49:26.972Z,9.53
2023-01-27T23:51:57.079Z,9.07
2023-01-27T23:54:26.417Z,9.87
2023-01-27T23:56:56.084Z,9.47
2023-01-27T23:59:25.773Z,10.73
